Observation data for O'Donnell on 07/19/2019      Previous  Date  Next       Current Mesonet Observations  Soil Data  Daily Summary Page  Observations in Plain Language
KOES 190500Z 17014G21KT 30/13 A2994 RMK A01 T02960130  RH  038%=      5-min Rain = 0
KOES 190505Z 17013G19KT 30/13 A2994 RMK A01 T02960130  RH  038%=      5-min Rain = 0
KOES 190510Z 17013G18KT 30/13 A2994 RMK A01 T02950131  RH  038%=      5-min Rain = 0
KOES 190515Z 17012G17KT 29/13 A2994 RMK A01 T02940131  RH  038%=      5-min Rain = 0
KOES 190520Z 17012G17KT 29/13 A2994 RMK A01 T02920131  RH  039%=      5-min Rain = 0
KOES 190525Z 17013G19KT 29/13 A2994 RMK A01 T02910131  RH  039%=      5-min Rain = 0
KOES 190530Z 17013G19KT 29/13 A2994 RMK A01 T02900131  RH  039%=      5-min Rain = 0
KOES 190535Z 17012G17KT 29/13 A2994 RMK A01 T02890131  RH  039%=      5-min Rain = 0
KOES 190540Z 17013KT 29/13 A2995 RMK A01 T02890131  RH  039%=      5-min Rain = 0
KOES 190545Z 18015KT 29/13 A2995 RMK A01 T02880130  RH  039%=      5-min Rain = 0
KOES 190550Z 18013KT 29/13 A2995 RMK A01 T02880130  RH  039%=      5-min Rain = 0
KOES 190555Z 18013G19KT 29/13 A2995 RMK A01 T02870129  RH  039%=      5-min Rain = 0
KOES 190600Z 17012G17KT 29/13 A2995 RMK A01 T02860128  RH  039%=      5-min Rain = 0
KOES 190605Z 17013G19KT 29/13 A2995 RMK A01 T02850127  RH  039%=      5-min Rain = 0
KOES 190610Z 18013KT 29/13 A2995 RMK A01 T02850126  RH  039%=      5-min Rain = 0
KOES 190615Z 17012G19KT 28/13 A2995 RMK A01 T02840125  RH  039%=      5-min Rain = 0
KOES 190620Z 18013KT 28/12 A2995 RMK A01 T02830123  RH  039%=      5-min Rain = 0
KOES 190625Z 18011G18KT 28/12 A2995 RMK A01 T02820122  RH  039%=      5-min Rain = 0
KOES 190630Z 17012G17KT 28/12 A2995 RMK A01 T02820121  RH  038%=      5-min Rain = 0
KOES 190635Z 17012KT 28/12 A2995 RMK A01 T02810120  RH  038%=      5-min Rain = 0
KOES 190640Z 17011G16KT 28/12 A2995 RMK A01 T02810119  RH  038%=      5-min Rain = 0
KOES 190645Z 17011G16KT 28/12 A2995 RMK A01 T02800119  RH  038%=      5-min Rain = 0
KOES 190650Z 17012G17KT 28/12 A2995 RMK A01 T02790118  RH  038%=      5-min Rain = 0
KOES 190655Z 17012G17KT 28/12 A2995 RMK A01 T02790117  RH  038%=      5-min Rain = 0
KOES 190700Z 18013G18KT 28/12 A2995 RMK A01 T02790116  RH  038%=      5-min Rain = 0
KOES 190705Z 17012G17KT 28/12 A2995 RMK A01 T02780116  RH  038%=      5-min Rain = 0
KOES 190710Z 17011G17KT 28/12 A2995 RMK A01 T02770115  RH  038%=      5-min Rain = 0
KOES 190715Z 18010G15KT 28/12 A2995 RMK A01 T02760115  RH  038%=      5-min Rain = 0
KOES 190720Z 17010KT 28/12 A2995 RMK A01 T02750115  RH  038%=      5-min Rain = 0
KOES 190725Z 17010G15KT 27/12 A2995 RMK A01 T02740115  RH  038%=      5-min Rain = 0
KOES 190730Z 17010KT 27/11 A2995 RMK A01 T02740114  RH  038%=      5-min Rain = 0
KOES 190735Z 17010G15KT 27/11 A2995 RMK A01 T02730114  RH  038%=      5-min Rain = 0
KOES 190740Z 18011G17KT 27/11 A2995 RMK A01 T02730114  RH  038%=      5-min Rain = 0
KOES 190745Z 18010KT 27/11 A2995 RMK A01 T02720113  RH  038%=      5-min Rain = 0
KOES 190750Z 18010G15KT 27/11 A2995 RMK A01 T02720113  RH  038%=      5-min Rain = 0
KOES 190755Z 18011G16KT 27/11 A2995 RMK A01 T02720113  RH  038%=      5-min Rain = 0
KOES 190800Z 18011G16KT 27/11 A2995 RMK A01 T02720112  RH  038%=      5-min Rain = 0
KOES 190805Z 17011G16KT 27/11 A2995 RMK A01 T02720112  RH  038%=      5-min Rain = 0
KOES 190810Z 17010KT 27/11 A2995 RMK A01 T02710112  RH  038%=      5-min Rain = 0
KOES 190815Z 17009G14KT 27/11 A2995 RMK A01 T02700112  RH  039%=      5-min Rain = 0
KOES 190820Z 17009KT 27/11 A2995 RMK A01 T02690113  RH  039%=      5-min Rain = 0
KOES 190825Z 17009KT 27/11 A2995 RMK A01 T02670113  RH  039%=      5-min Rain = 0
KOES 190830Z 17010KT 27/11 A2995 RMK A01 T02670113  RH  039%=      5-min Rain = 0
KOES 190835Z 17010KT 27/11 A2995 RMK A01 T02670113  RH  040%=      5-min Rain = 0
KOES 190840Z 17008KT 27/11 A2995 RMK A01 T02660113  RH  040%=      5-min Rain = 0
KOES 190845Z 16009KT 27/11 A2995 RMK A01 T02650113  RH  040%=      5-min Rain = 0
KOES 190850Z 16008KT 26/11 A2995 RMK A01 T02640113  RH  040%=      5-min Rain = 0
KOES 190855Z 16008KT 26/11 A2995 RMK A01 T02620114  RH  041%=      5-min Rain = 0
KOES 190900Z 16008KT 26/12 A2995 RMK A01 T02610115  RH  042%=      5-min Rain = 0
KOES 190905Z 16008KT 26/12 A2995 RMK A01 T02600115  RH  042%=      5-min Rain = 0
KOES 190910Z 16009G14KT 26/12 A2995 RMK A01 T02590116  RH  042%=      5-min Rain = 0
KOES 190915Z 16010G15KT 26/12 A2995 RMK A01 T02590116  RH  042%=      5-min Rain = 0
KOES 190920Z 16010G15KT 26/12 A2995 RMK A01 T02580116  RH  043%=      5-min Rain = 0
KOES 190925Z 16009KT 26/12 A2995 RMK A01 T02570116  RH  043%=      5-min Rain = 0
KOES 190930Z 16010KT 26/12 A2995 RMK A01 T02570117  RH  043%=      5-min Rain = 0
KOES 190935Z 16009KT 26/12 A2995 RMK A01 T02560117  RH  043%=      5-min Rain = 0
KOES 190940Z 16009KT 26/12 A2995 RMK A01 T02550118  RH  044%=      5-min Rain = 0
KOES 190945Z 16009G14KT 25/12 A2995 RMK A01 T02540118  RH  044%=      5-min Rain = 0
KOES 190950Z 16008KT 25/12 A2995 RMK A01 T02540118  RH  044%=      5-min Rain = 0
KOES 190955Z 16008KT 25/12 A2995 RMK A01 T02520118  RH  045%=      5-min Rain = 0
KOES 191000Z 15008G14KT 25/12 A2995 RMK A01 T02510117  RH  045%=      5-min Rain = 0
KOES 191005Z 15009KT 25/12 A2995 RMK A01 T02500117  RH  045%=      5-min Rain = 0
KOES 191010Z 15010KT 25/12 A2995 RMK A01 T02490117  RH  045%=      5-min Rain = 0
KOES 191015Z 16009G14KT 25/12 A2995 RMK A01 T02480118  RH  046%=      5-min Rain = 0
KOES 191020Z 16010G16KT 25/12 A2996 RMK A01 T02470119  RH  046%=      5-min Rain = 0
KOES 191025Z 16009G15KT 25/12 A2996 RMK A01 T02470121  RH  047%=      5-min Rain = 0
KOES 191030Z 16010KT 25/12 A2995 RMK A01 T02460122  RH  048%=      5-min Rain = 0
KOES 191035Z 16010KT 25/12 A2995 RMK A01 T02460123  RH  048%=      5-min Rain = 0
KOES 191040Z 16009G14KT 25/13 A2995 RMK A01 T02450125  RH  049%=      5-min Rain = 0
KOES 191045Z 16009G14KT 25/13 A2996 RMK A01 T02450126  RH  049%=      5-min Rain = 0
KOES 191050Z 16009G15KT 25/13 A2996 RMK A01 T02450127  RH  050%=      5-min Rain = 0
KOES 191055Z 16009G14KT 25/13 A2996 RMK A01 T02450128  RH  050%=      5-min Rain = 0
KOES 191100Z 17009KT 24/13 A2996 RMK A01 T02440129  RH  051%=      5-min Rain = 0
KOES 191105Z 16009KT 24/13 A2996 RMK A01 T02440129  RH  051%=      5-min Rain = 0
KOES 191110Z 16009G15KT 24/13 A2996 RMK A01 T02430130  RH  051%=      5-min Rain = 0
KOES 191115Z 17009KT 24/13 A2996 RMK A01 T02430130  RH  051%=      5-min Rain = 0
KOES 191120Z 17010G15KT 24/13 A2996 RMK A01 T02430131  RH  052%=      5-min Rain = 0
KOES 191125Z 17010KT 24/13 A2996 RMK A01 T02430131  RH  052%=      5-min Rain = 0
KOES 191130Z 17009KT 24/13 A2996 RMK A01 T02420132  RH  052%=      5-min Rain = 0
KOES 191135Z 17009G15KT 24/13 A2996 RMK A01 T02410132  RH  053%=      5-min Rain = 0
KOES 191140Z 17010KT 24/13 A2997 RMK A01 T02410133  RH  053%=      5-min Rain = 0
KOES 191145Z 17009KT 24/13 A2997 RMK A01 T02400134  RH  053%=      5-min Rain = 0
KOES 191150Z 17009KT 24/13 A2997 RMK A01 T02400134  RH  054%=      5-min Rain = 0
KOES 191155Z 17009KT 24/14 A2997 RMK A01 T02390135  RH  054%=      5-min Rain = 0
KOES 191200Z 17009KT 24/14 A2997 RMK A01 T02390135  RH  054%=      5-min Rain = 0
KOES 191205Z 17009KT 24/14 A2997 RMK A01 T02380136  RH  055%=      5-min Rain = 0
KOES 191210Z 17009KT 24/14 A2997 RMK A01 T02390136  RH  055%=      5-min Rain = 0
KOES 191215Z 17008KT 24/14 A2997 RMK A01 T02380137  RH  055%=      5-min Rain = 0
KOES 191220Z 17010G15KT 24/14 A2997 RMK A01 T02390138  RH  055%=      5-min Rain = 0
KOES 191225Z 17009KT 24/14 A2997 RMK A01 T02390138  RH  055%=      5-min Rain = 0
KOES 191230Z 16009KT 24/14 A2997 RMK A01 T02400139  RH  055%=      5-min Rain = 0
KOES 191235Z 17008KT 24/14 A2997 RMK A01 T02410140  RH  055%=      5-min Rain = 0
KOES 191240Z 17008KT 24/14 A2997 RMK A01 T02420140  RH  055%=      5-min Rain = 0
KOES 191245Z 17008KT 24/14 A2997 RMK A01 T02430141  RH  055%=      5-min Rain = 0
KOES 191250Z 17009KT 24/14 A2997 RMK A01 T02440142  RH  055%=      5-min Rain = 0
KOES 191255Z 16010KT 25/14 A2997 RMK A01 T02450142  RH  055%=      5-min Rain = 0
KOES 191300Z 17009G14KT 25/14 A2997 RMK A01 T02470143  RH  055%=      5-min Rain = 0
KOES 191305Z 17011G17KT 25/14 A2997 RMK A01 T02490143  RH  054%=      5-min Rain = 0
KOES 191310Z 17011KT 25/14 A2997 RMK A01 T02500144  RH  054%=      5-min Rain = 0
KOES 191315Z 17010KT 25/14 A2997 RMK A01 T02520144  RH  054%=      5-min Rain = 0
KOES 191320Z 17011G17KT 25/15 A2997 RMK A01 T02540145  RH  053%=      5-min Rain = 0
KOES 191325Z 16012G18KT 26/15 A2997 RMK A01 T02550145  RH  053%=      5-min Rain = 0
KOES 191330Z 17012G17KT 26/15 A2997 RMK A01 T02560145  RH  053%=      5-min Rain = 0
KOES 191335Z 17013G22KT 26/15 A2997 RMK A01 T02580145  RH  052%=      5-min Rain = 0
KOES 191340Z 16012G20KT 26/15 A2997 RMK A01 T02580146  RH  052%=      5-min Rain = 0
KOES 191345Z 17013G20KT 26/15 A2997 RMK A01 T02590146  RH  052%=      5-min Rain = 0
KOES 191350Z 17014G20KT 26/15 A2997 RMK A01 T02610146  RH  051%=      5-min Rain = 0
KOES 191355Z 17012G17KT 26/15 A2997 RMK A01 T02630146  RH  051%=      5-min Rain = 0
KOES 191400Z 17014KT 26/15 A2997 RMK A01 T02640146  RH  050%=      5-min Rain = 0
KOES 191405Z 17015G21KT 27/15 A2997 RMK A01 T02650146  RH  050%=      5-min Rain = 0
KOES 191410Z 17014G20KT 27/15 A2997 RMK A01 T02660145  RH  049%=      5-min Rain = 0
KOES 191415Z 17014G21KT 27/15 A2997 RMK A01 T02690145  RH  049%=      5-min Rain = 0
KOES 191420Z 18015G21KT 27/15 A2997 RMK A01 T02680145  RH  049%=      5-min Rain = 0
KOES 191425Z 17015G20KT 27/15 A2997 RMK A01 T02690145  RH  049%=      5-min Rain = 0
KOES 191430Z 18016G23KT 27/15 A2997 RMK A01 T02720145  RH  048%=      5-min Rain = 0
KOES 191435Z 18016G23KT 27/15 A2998 RMK A01 T02720145  RH  048%=      5-min Rain = 0
KOES 191440Z 18016G21KT 27/15 A2998 RMK A01 T02720145  RH  048%=      5-min Rain = 0
KOES 191445Z 18017G23KT 27/14 A2998 RMK A01 T02730144  RH  047%=      5-min Rain = 0
KOES 191450Z 18015G23KT 28/15 A2998 RMK A01 T02760145  RH  047%=      5-min Rain = 0
KOES 191455Z 19016G21KT 28/15 A2998 RMK A01 T02770145  RH  046%=      5-min Rain = 0
KOES 191500Z 18014G19KT 28/15 A2998 RMK A01 T02800145  RH  045%=      5-min Rain = 0
KOES 191505Z 18015G20KT 28/14 A2998 RMK A01 T02840144  RH  044%=      5-min Rain = 0
KOES 191510Z 18014G21KT 28/14 A2998 RMK A01 T02840144  RH  044%=      5-min Rain = 0
KOES 191515Z 18015G22KT 29/14 A2998 RMK A01 T02860143  RH  044%=      5-min Rain = 0
KOES 191520Z 18014G19KT 29/14 A2998 RMK A01 T02860144  RH  044%=      5-min Rain = 0
KOES 191525Z 18013G19KT 29/14 A2997 RMK A01 T02870144  RH  043%=      5-min Rain = 0
KOES 191530Z 18014G20KT 29/14 A2998 RMK A01 T02890143  RH  043%=      5-min Rain = 0
KOES 191535Z 18014G21KT 29/14 A2998 RMK A01 T02910143  RH  042%=      5-min Rain = 0
KOES 191540Z 18016G21KT 29/14 A2998 RMK A01 T02910142  RH  042%=      5-min Rain = 0
KOES 191545Z 19016G21KT 29/14 A2998 RMK A01 T02930143  RH  042%=      5-min Rain = 0
KOES 191550Z 18015G22KT 29/14 A2997 RMK A01 T02940143  RH  042%=      5-min Rain = 0
KOES 191555Z 19014G20KT 30/14 A2997 RMK A01 T02970144  RH  041%=      5-min Rain = 0
KOES 191600Z 19015G23KT 30/14 A2997 RMK A01 T02990143  RH  040%=      5-min Rain = 0
KOES 191605Z 18015G21KT 30/14 A2997 RMK A01 T03010142  RH  039%=      5-min Rain = 0
KOES 191610Z 18014G20KT 31/14 A2997 RMK A01 T03050142  RH  039%=      5-min Rain = 0
KOES 191615Z 19014G22KT 31/14 A2997 RMK A01 T03060141  RH  038%=      5-min Rain = 0
KOES 191620Z 18012G19KT 31/14 A2997 RMK A01 T03120141  RH  037%=      5-min Rain = 0
KOES 191625Z 18014G19KT 31/14 A2997 RMK A01 T03120139  RH  036%=      5-min Rain = 0
KOES 191630Z 18014G20KT 31/14 A2997 RMK A01 T03110140  RH  037%=      5-min Rain = 0
KOES 191635Z 18015KT 31/14 A2997 RMK A01 T03130138  RH  036%=      5-min Rain = 0
KOES 191640Z 18014G19KT 31/14 A2997 RMK A01 T03130138  RH  036%=      5-min Rain = 0
KOES 191645Z 19014G21KT 32/14 A2997 RMK A01 T03170138  RH  035%=      5-min Rain = 0
KOES 191650Z 18013G18KT 32/14 A2997 RMK A01 T03190135  RH  034%=      5-min Rain = 0
KOES 191655Z 18013G18KT 33/14 A2997 RMK A01 T03250136  RH  033%=      5-min Rain = 0
KOES 191700Z 19014G22KT 33/14 A2996 RMK A01 T03250136  RH  033%=      5-min Rain = 0
KOES 191705Z 19014G20KT 33/14 A2996 RMK A01 T03250137  RH  033%=      5-min Rain = 0
KOES 191710Z 19015G20KT 32/14 A2996 RMK A01 T03240137  RH  034%=      5-min Rain = 0
KOES 191715Z 19013G19KT 33/14 A2996 RMK A01 T03300135  RH  032%=      5-min Rain = 0
KOES 191720Z 19012G17KT 33/14 A2997 RMK A01 T03340135  RH  031%=      5-min Rain = 0
KOES 191725Z 18013G19KT 34/14 A2997 RMK A01 T03350135  RH  031%=      5-min Rain = 0
KOES 191730Z 19013G19KT 34/14 A2997 RMK A01 T03350135  RH  031%=      5-min Rain = 0
KOES 191735Z 19013G19KT 34/13 A2996 RMK A01 T03380134  RH  030%=      5-min Rain = 0
KOES 191740Z 18013G20KT 34/13 A2996 RMK A01 T03370134  RH  031%=      5-min Rain = 0
KOES 191745Z 19015KT 34/13 A2996 RMK A01 T03390133  RH  030%=      5-min Rain = 0
KOES 191750Z 19014G19KT 34/13 A2996 RMK A01 T03410134  RH  030%=      5-min Rain = 0
KOES 191755Z 20014G20KT 34/13 A2996 RMK A01 T03440133  RH  029%=      5-min Rain = 0
KOES 191800Z 18013G20KT 34/13 A2996 RMK A01 T03440133  RH  029%=      5-min Rain = 0
KOES 191805Z 19014G19KT 35/14 A2996 RMK A01 T03470135  RH  029%=      5-min Rain = 0
KOES 191810Z 18012G17KT 35/13 A2996 RMK A01 T03470133  RH  029%=      5-min Rain = 0
KOES 191815Z 18013G20KT 35/13 A2996 RMK A01 T03470131  RH  028%=      5-min Rain = 0
KOES 191820Z 17013G19KT 35/13 A2996 RMK A01 T03480131  RH  028%=      5-min Rain = 0
KOES 191825Z 18013G22KT 35/13 A2996 RMK A01 T03470132  RH  029%=      5-min Rain = 0
KOES 191830Z 18011G18KT 35/13 A2996 RMK A01 T03530131  RH  027%=      5-min Rain = 0
KOES 191835Z 18011G16KT 35/13 A2995 RMK A01 T03540131  RH  027%=      5-min Rain = 0
KOES 191840Z 18013G18KT 36/13 A2995 RMK A01 T03560129  RH  027%=      5-min Rain = 0
KOES 191845Z 18012G19KT 36/13 A2995 RMK A01 T03560129  RH  027%=      5-min Rain = 0
KOES 191850Z 18012G17KT 36/13 A2995 RMK A01 T03590129  RH  026%=      5-min Rain = 0
KOES 191855Z 17012KT 36/13 A2995 RMK A01 T03580128  RH  026%=      5-min Rain = 0
KOES 191900Z 19011G18KT 36/12 A2995 RMK A01 T03620124  RH  025%=      5-min Rain = 0
KOES 191905Z 18011KT 36/13 A2995 RMK A01 T03640127  RH  025%=      5-min Rain = 0
KOES 191910Z 19012G18KT 36/12 A2995 RMK A01 T03640122  RH  024%=      5-min Rain = 0
KOES 191915Z 17013G18KT 36/12 A2994 RMK A01 T03620123  RH  025%=      5-min Rain = 0
KOES 191920Z 20012G17KT 36/12 A2994 RMK A01 T03640122  RH  024%=      5-min Rain = 0
KOES 191925Z 17011G17KT 37/12 A2994 RMK A01 T03670123  RH  024%=      5-min Rain = 0
KOES 191930Z 17011G17KT 37/12 A2994 RMK A01 T03650122  RH  024%=      5-min Rain = 0
KOES 191935Z 17012G17KT 37/12 A2994 RMK A01 T03670121  RH  024%=      5-min Rain = 0
KOES 191940Z 18011G17KT 37/12 A2994 RMK A01 T03720116  RH  022%=      5-min Rain = 0
KOES 191945Z 18010KT 37/12 A2994 RMK A01 T03680119  RH  023%=      5-min Rain = 0
KOES 191950Z 18011G18KT 37/12 A2994 RMK A01 T03710119  RH  023%=      5-min Rain = 0
KOES 191955Z 18010G16KT 37/11 A2994 RMK A01 T03700113  RH  022%=      5-min Rain = 0
KOES 192000Z 18011G16KT 37/11 A2994 RMK A01 T03710112  RH  022%=      5-min Rain = 0
KOES 192005Z 18010G17KT 37/11 A2993 RMK A01 T03700112  RH  022%=      5-min Rain = 0
KOES 192010Z 20012G17KT 37/11 A2993 RMK A01 T03730109  RH  021%=      5-min Rain = 0
KOES 192015Z 20011G17KT 38/10 A2993 RMK A01 T03760104  RH  020%=      5-min Rain = 0
KOES 192020Z 18012G18KT 38/10 A2993 RMK A01 T03770103  RH  020%=      5-min Rain = 0
KOES 192025Z 16010G15KT 37/11 A2993 RMK A01 T03740105  RH  020%=      5-min Rain = 0
KOES 192030Z 17012G17KT 38/10 A2993 RMK A01 T03750100  RH  020%=      5-min Rain = 0
KOES 192035Z 16011G18KT 37/10 A2992 RMK A01 T03730096  RH  019%=      5-min Rain = 0
KOES 192040Z 19012G18KT 37/09 A2992 RMK A01 T03740091  RH  019%=      5-min Rain = 0
KOES 192045Z 20010G17KT 38/09 A2992 RMK A01 T03780090  RH  018%=      5-min Rain = 0
KOES 192050Z 18010G15KT 38/09 A2992 RMK A01 T03780089  RH  018%=      5-min Rain = 0
KOES 192055Z 18009G16KT 38/10 A2992 RMK A01 T03810095  RH  018%=      5-min Rain = 0
KOES 192100Z 17010KT 38/09 A2992 RMK A01 T03830091  RH  018%=      5-min Rain = 0
KOES 192105Z 15008G14KT 38/09 A2992 RMK A01 T03820085  RH  017%=      5-min Rain = 0
KOES 192110Z 17011G18KT 38/09 A2991 RMK A01 T03810088  RH  018%=      5-min Rain = 0
KOES 192115Z 17010KT 38/09 A2991 RMK A01 T03820089  RH  018%=      5-min Rain = 0
KOES 192120Z 16010G17KT 38/09 A2991 RMK A01 T03800088  RH  018%=      5-min Rain = 0
KOES 192125Z 19012G19KT 38/09 A2991 RMK A01 T03800085  RH  017%=      5-min Rain = 0
KOES 192130Z 19014G20KT 38/08 A2991 RMK A01 T03800076  RH  016%=      5-min Rain = 0
KOES 192135Z 18010G18KT 38/08 A2991 RMK A01 T03800076  RH  016%=      5-min Rain = 0
KOES 192140Z 19009KT 38/08 A2991 RMK A01 T03830082  RH  017%=      5-min Rain = 0
KOES 192145Z 19012G18KT 38/07 A2991 RMK A01 T03810074  RH  016%=      5-min Rain = 0
KOES 192150Z 18009KT 38/07 A2991 RMK A01 T03800074  RH  016%=      5-min Rain = 0
KOES 192155Z 16009G14KT 38/08 A299 RMK A01 T03810076  RH  016%=      5-min Rain = 0
KOES 192200Z 19009G14KT 38/08 A299 RMK A01 T03820084  RH  017%=      5-min Rain = 0
KOES 192205Z 19010KT 38/09 A299 RMK A01 T03820086  RH  017%=      5-min Rain = 0
KOES 192210Z 20013KT 38/08 A299 RMK A01 T03810084  RH  017%=      5-min Rain = 0
KOES 192215Z 19009G17KT 38/08 A299 RMK A01 T03790082  RH  017%=      5-min Rain = 0
KOES 192220Z 21010G17KT 38/08 A299 RMK A01 T03810082  RH  017%=      5-min Rain = 0
KOES 192225Z 19012KT 38/08 A299 RMK A01 T03830082  RH  017%=      5-min Rain = 0
KOES 192230Z 20010KT 38/09 A299 RMK A01 T03830087  RH  017%=      5-min Rain = 0
KOES 192235Z 20013G20KT 38/09 A299 RMK A01 T03810091  RH  018%=      5-min Rain = 0
KOES 192240Z 19008G13KT 38/09 A299 RMK A01 T03780093  RH  018%=      5-min Rain = 0
KOES 192245Z 16010G16KT 38/09 A2989 RMK A01 T03800088  RH  018%=      5-min Rain = 0
KOES 192250Z 16009G14KT 38/09 A2989 RMK A01 T03800090  RH  018%=      5-min Rain = 0
KOES 192255Z 14010G15KT 38/09 A2989 RMK A01 T03770089  RH  018%=      5-min Rain = 0
KOES 192300Z 19011G19KT 38/09 A2989 RMK A01 T03780091  RH  018%=      5-min Rain = 0
KOES 192305Z 19011KT 38/09 A2989 RMK A01 T03770089  RH  018%=      5-min Rain = 0
KOES 192310Z 17009G14KT 37/09 A2989 RMK A01 T03720091  RH  019%=      5-min Rain = 0
KOES 192315Z 17009KT 38/09 A2989 RMK A01 T03760091  RH  018%=      5-min Rain = 0
KOES 192320Z 18009G15KT 38/09 A2989 RMK A01 T03770093  RH  018%=      5-min Rain = 0
KOES 192325Z 17010G17KT 38/09 A2988 RMK A01 T03760091  RH  018%=      5-min Rain = 0
KOES 192330Z 19011G16KT 37/09 A2988 RMK A01 T03740085  RH  018%=      5-min Rain = 0
KOES 192335Z 17008KT 37/09 A2989 RMK A01 T03740086  RH  018%=      5-min Rain = 0
KOES 192340Z 17008KT 37/09 A2988 RMK A01 T03740089  RH  018%=      5-min Rain = 0
KOES 192345Z 17010KT 37/08 A2988 RMK A01 T03740084  RH  018%=      5-min Rain = 0
KOES 192350Z 16010G16KT 37/09 A2988 RMK A01 T03720091  RH  019%=      5-min Rain = 0
KOES 192355Z 17012KT 37/09 A2988 RMK A01 T03710091  RH  019%=      5-min Rain = 0
KOES 200000Z 17008KT 37/09 A2988 RMK A01 T03710090  RH  019%=      5-min Rain = 0
KOES 200005Z 16011G16KT 37/09 A2988 RMK A01 T03700093  RH  019%=      5-min Rain = 0
KOES 200010Z 16012G18KT 37/09 A2988 RMK A01 T03670093  RH  020%=      5-min Rain = 0
KOES 200015Z 15011G16KT 37/09 A2988 RMK A01 T03650093  RH  020%=      5-min Rain = 0
KOES 200020Z 16012KT 36/09 A2988 RMK A01 T03640093  RH  020%=      5-min Rain = 0
KOES 200025Z 17009G14KT 37/10 A2988 RMK A01 T03650095  RH  020%=      5-min Rain = 0
KOES 200030Z 17008G13KT 37/10 A2988 RMK A01 T03650096  RH  020%=      5-min Rain = 0
KOES 200035Z 16010KT 36/10 A2989 RMK A01 T03630095  RH  020%=      5-min Rain = 0
KOES 200040Z 16012G17KT 36/09 A2989 RMK A01 T03600094  RH  020%=      5-min Rain = 0
KOES 200045Z 16011G18KT 36/10 A2989 RMK A01 T03580095  RH  021%=      5-min Rain = 0
KOES 200050Z 16011G16KT 36/10 A2989 RMK A01 T03570095  RH  021%=      5-min Rain = 0
KOES 200055Z 16010KT 36/10 A2989 RMK A01 T03560096  RH  021%=      5-min Rain = 0
KOES 200100Z 16010G16KT 36/10 A2989 RMK A01 T03550095  RH  021%=      5-min Rain = 0
KOES 200105Z 16010G16KT 35/10 A2989 RMK A01 T03530096  RH  021%=      5-min Rain = 0
KOES 200110Z 16012G17KT 35/09 A2989 RMK A01 T03510094  RH  022%=      5-min Rain = 0
KOES 200115Z 16010KT 35/10 A2989 RMK A01 T03500096  RH  022%=      5-min Rain = 0
KOES 200120Z 16010G15KT 35/10 A2989 RMK A01 T03490096  RH  022%=      5-min Rain = 0
KOES 200125Z 16009KT 35/10 A2989 RMK A01 T03470096  RH  022%=      5-min Rain = 0
KOES 200130Z 16010KT 35/10 A2989 RMK A01 T03450096  RH  023%=      5-min Rain = 0
KOES 200135Z 16010G15KT 34/10 A299 RMK A01 T03430097  RH  023%=      5-min Rain = 0
KOES 200140Z 17009G14KT 34/10 A299 RMK A01 T03400099  RH  024%=      5-min Rain = 0
KOES 200145Z 17010KT 34/10 A299 RMK A01 T03390099  RH  024%=      5-min Rain = 0
KOES 200150Z 17009KT 34/10 A299 RMK A01 T03370100  RH  024%=      5-min Rain = 0
KOES 200155Z 16009G15KT 34/10 A299 RMK A01 T03360100  RH  024%=      5-min Rain = 0
KOES 200200Z 16010G16KT 34/10 A299 RMK A01 T03350100  RH  024%=      5-min Rain = 0
KOES 200205Z 16010G15KT 33/10 A299 RMK A01 T03340100  RH  025%=      5-min Rain = 0
KOES 200210Z 16009KT 33/10 A299 RMK A01 T03320101  RH  025%=      5-min Rain = 0
KOES 200215Z 16009G15KT 33/10 A299 RMK A01 T03300101  RH  025%=      5-min Rain = 0
KOES 200220Z 17009KT 33/10 A299 RMK A01 T03290102  RH  026%=      5-min Rain = 0
KOES 200225Z 17008KT 33/10 A299 RMK A01 T03270102  RH  026%=      5-min Rain = 0
KOES 200230Z 17009G15KT 33/10 A2991 RMK A01 T03250102  RH  026%=      5-min Rain = 0
KOES 200235Z 16010KT 32/10 A2991 RMK A01 T03240101  RH  026%=      5-min Rain = 0
KOES 200240Z 16010KT 32/10 A2991 RMK A01 T03240100  RH  026%=      5-min Rain = 0
KOES 200245Z 17010G15KT 32/10 A2991 RMK A01 T03220099  RH  026%=      5-min Rain = 0
KOES 200250Z 17011KT 32/10 A2992 RMK A01 T03210099  RH  026%=      5-min Rain = 0
KOES 200255Z 17010G15KT 32/10 A2992 RMK A01 T03200098  RH  026%=      5-min Rain = 0
KOES 200300Z 17011KT 32/10 A2992 RMK A01 T03190098  RH  026%=      5-min Rain = 0
KOES 200305Z 17012G18KT 32/10 A2992 RMK A01 T03180097  RH  026%=      5-min Rain = 0
KOES 200310Z 17012G17KT 32/10 A2992 RMK A01 T03180097  RH  026%=      5-min Rain = 0
KOES 200315Z 17011KT 32/10 A2993 RMK A01 T03160096  RH  027%=      5-min Rain = 0
KOES 200320Z 17012G17KT 32/10 A2993 RMK A01 T03150095  RH  027%=      5-min Rain = 0
KOES 200325Z 17012G17KT 31/09 A2993 RMK A01 T03140093  RH  026%=      5-min Rain = 0
KOES 200330Z 17011G16KT 31/09 A2994 RMK A01 T03130091  RH  026%=      5-min Rain = 0
KOES 200335Z 17011G17KT 31/09 A2994 RMK A01 T03120090  RH  026%=      5-min Rain = 0
KOES 200340Z 17012G17KT 31/09 A2994 RMK A01 T03110087  RH  026%=      5-min Rain = 0
KOES 200345Z 17012G20KT 31/09 A2994 RMK A01 T03100085  RH  026%=      5-min Rain = 0
KOES 200350Z 17012KT 31/08 A2994 RMK A01 T03090084  RH  025%=      5-min Rain = 0
KOES 200355Z 17013KT 31/08 A2994 RMK A01 T03070084  RH  026%=      5-min Rain = 0
KOES 200400Z 17011G16KT 31/08 A2995 RMK A01 T03060083  RH  026%=      5-min Rain = 0
KOES 200405Z 17010G15KT 30/08 A2995 RMK A01 T03040084  RH  026%=      5-min Rain = 0
KOES 200410Z 17011KT 30/08 A2995 RMK A01 T03020084  RH  026%=      5-min Rain = 0
KOES 200415Z 17011G16KT 30/09 A2995 RMK A01 T03010085  RH  027%=      5-min Rain = 0
KOES 200420Z 17011G16KT 30/09 A2995 RMK A01 T03000086  RH  027%=      5-min Rain = 0
KOES 200425Z 17011G18KT 30/09 A2995 RMK A01 T02990087  RH  027%=      5-min Rain = 0
KOES 200430Z 17013KT 30/09 A2995 RMK A01 T02980088  RH  028%=      5-min Rain = 0
KOES 200435Z 17011KT 30/09 A2995 RMK A01 T02970089  RH  028%=      5-min Rain = 0
KOES 200440Z 17011G18KT 30/09 A2995 RMK A01 T02960090  RH  029%=      5-min Rain = 0
KOES 200445Z 17011G16KT 30/09 A2995 RMK A01 T02950090  RH  029%=      5-min Rain = 0
KOES 200450Z 17011KT 29/09 A2995 RMK A01 T02930091  RH  029%=      5-min Rain = 0
KOES 200455Z 17011G16KT 29/09 A2996 RMK A01 T02920091  RH  029%=      5-min Rain = 0

Page generated in 0.0147 seconds.